sensor_id;sensor_type;location;lat;lon;timestamp;pressure;altitude;pressure_sealevel;temperature;humidity
73016;BME280;61893;50.074;14.440;2022-09-30T00:01:02;97705.66;;;8.88;81.92
73016;BME280;61893;50.074;14.440;2022-09-30T00:03:37;97703.66;;;8.82;81.61
73016;BME280;61893;50.074;14.440;2022-09-30T00:06:05;97710.47;;;8.85;81.91
73016;BME280;61893;50.074;14.440;2022-09-30T00:08:31;97715.59;;;8.86;81.83
73016;BME280;61893;50.074;14.440;2022-09-30T00:11:14;97713.28;;;8.91;81.26
73016;BME280;61893;50.074;14.440;2022-09-30T00:13:41;97719.06;;;8.87;81.41
73016;BME280;61893;50.074;14.440;2022-09-30T00:16:08;97724.66;;;8.75;81.27
73016;BME280;61893;50.074;14.440;2022-09-30T00:18:35;97725.00;;;8.72;80.50
73016;BME280;61893;50.074;14.440;2022-09-30T00:21:01;97729.13;;;8.67;80.30
73016;BME280;61893;50.074;14.440;2022-09-30T00:23:27;97720.19;;;8.68;80.32
73016;BME280;61893;50.074;14.440;2022-09-30T00:25:58;97731.63;;;8.68;80.57
73016;BME280;61893;50.074;14.440;2022-09-30T00:28:25;97721.41;;;8.90;80.46
73016;BME280;61893;50.074;14.440;2022-09-30T00:30:51;97721.00;;;8.68;80.93
73016;BME280;61893;50.074;14.440;2022-09-30T00:33:17;97720.44;;;8.91;80.55
73016;BME280;61893;50.074;14.440;2022-09-30T00:35:43;97726.22;;;8.94;80.73
73016;BME280;61893;50.074;14.440;2022-09-30T00:38:08;97723.75;;;9.01;80.72
73016;BME280;61893;50.074;14.440;2022-09-30T00:40:37;97725.44;;;9.10;80.06
73016;BME280;61893;50.074;14.440;2022-09-30T00:43:14;97730.94;;;9.17;79.62
73016;BME280;61893;50.074;14.440;2022-09-30T00:45:50;97724.22;;;8.88;81.07
73016;BME280;61893;50.074;14.440;2022-09-30T00:48:32;97731.13;;;8.65;81.38
73016;BME280;61893;50.074;14.440;2022-09-30T00:51:00;97728.59;;;8.63;81.36
73016;BME280;61893;50.074;14.440;2022-09-30T00:56:10;97739.66;;;8.85;80.04
73016;BME280;61893;50.074;14.440;2022-09-30T00:58:40;97736.41;;;9.07;80.01
73016;BME280;61893;50.074;14.440;2022-09-30T01:01:08;97729.44;;;9.22;78.90
73016;BME280;61893;50.074;14.440;2022-09-30T01:03:37;97732.44;;;9.28;78.87
73016;BME280;61893;50.074;14.440;2022-09-30T01:06:08;97732.94;;;9.31;78.73
73016;BME280;61893;50.074;14.440;2022-09-30T01:08:36;97744.53;;;9.22;78.25
73016;BME280;61893;50.074;14.440;2022-09-30T01:11:03;97746.50;;;9.12;80.06
73016;BME280;61893;50.074;14.440;2022-09-30T01:13:30;97740.75;;;9.24;80.59
73016;BME280;61893;50.074;14.440;2022-09-30T01:21:54;97744.06;;;8.68;80.79
73016;BME280;61893;50.074;14.440;2022-09-30T01:24:40;97732.34;;;8.78;80.38
73016;BME280;61893;50.074;14.440;2022-09-30T01:27:21;97734.28;;;8.68;80.82
73016;BME280;61893;50.074;14.440;2022-09-30T01:30:10;97738.91;;;8.66;80.43
73016;BME280;61893;50.074;14.440;2022-09-30T01:32:48;97734.66;;;8.90;80.41
73016;BME280;61893;50.074;14.440;2022-09-30T01:35:38;97741.44;;;8.84;79.98
73016;BME280;61893;50.074;14.440;2022-09-30T01:43:27;97743.78;;;8.79;80.89
73016;BME280;61893;50.074;14.440;2022-09-30T01:46:06;97750.00;;;8.70;80.57
73016;BME280;61893;50.074;14.440;2022-09-30T01:48:45;97753.97;;;8.66;81.12
73016;BME280;61893;50.074;14.440;2022-09-30T01:51:27;97761.75;;;8.59;81.43
73016;BME280;61893;50.074;14.440;2022-09-30T01:54:03;97768.25;;;8.65;80.79
73016;BME280;61893;50.074;14.440;2022-09-30T01:56:40;97772.13;;;8.44;81.32
73016;BME280;61893;50.074;14.440;2022-09-30T02:01:48;97772.78;;;8.46;81.25
73016;BME280;61893;50.074;14.440;2022-09-30T02:04:23;97778.25;;;8.45;80.79
73016;BME280;61893;50.074;14.440;2022-09-30T02:06:55;97783.78;;;8.33;81.79
73016;BME280;61893;50.074;14.440;2022-09-30T02:09:31;97799.59;;;8.43;80.81
73016;BME280;61893;50.074;14.440;2022-09-30T02:12:05;97796.34;;;8.31;81.31
73016;BME280;61893;50.074;14.440;2022-09-30T02:14:40;97791.88;;;8.32;81.23
73016;BME280;61893;50.074;14.440;2022-09-30T02:19:57;97776.53;;;8.35;81.29
73016;BME280;61893;50.074;14.440;2022-09-30T02:22:31;97781.91;;;8.26;81.47
73016;BME280;61893;50.074;14.440;2022-09-30T02:25:05;97780.09;;;8.26;81.70
73016;BME280;61893;50.074;14.440;2022-09-30T02:27:36;97780.44;;;8.31;81.34
73016;BME280;61893;50.074;14.440;2022-09-30T02:30:06;97783.63;;;8.35;81.25
73016;BME280;61893;50.074;14.440;2022-09-30T02:32:39;97782.41;;;8.47;80.88
73016;BME280;61893;50.074;14.440;2022-09-30T02:35:09;97784.38;;;8.45;80.61
73016;BME280;61893;50.074;14.440;2022-09-30T02:37:39;97783.59;;;8.53;80.65
73016;BME280;61893;50.074;14.440;2022-09-30T02:40:40;97777.44;;;8.52;80.53
73016;BME280;61893;50.074;14.440;2022-09-30T02:43:08;97787.06;;;8.53;80.87
73016;BME280;61893;50.074;14.440;2022-09-30T02:48:54;97797.00;;;8.51;80.83
73016;BME280;61893;50.074;14.440;2022-09-30T02:59:31;97794.53;;;8.58;80.26
73016;BME280;61893;50.074;14.440;2022-09-30T03:01:57;97794.03;;;8.54;80.26
73016;BME280;61893;50.074;14.440;2022-09-30T03:04:32;97799.19;;;8.56;80.10
73016;BME280;61893;50.074;14.440;2022-09-30T03:07:02;97799.03;;;8.57;80.46
73016;BME280;61893;50.074;14.440;2022-09-30T03:09:28;97805.75;;;8.78;80.84
73016;BME280;61893;50.074;14.440;2022-09-30T03:12:02;97797.66;;;8.79;81.20
73016;BME280;61893;50.074;14.440;2022-09-30T03:20:49;97802.72;;;8.65;80.50
73016;BME280;61893;50.074;14.440;2022-09-30T03:23:38;97800.75;;;8.75;79.75
73016;BME280;61893;50.074;14.440;2022-09-30T03:31:45;97811.00;;;8.70;79.12
73016;BME280;61893;50.074;14.440;2022-09-30T03:34:30;97807.53;;;8.69;79.08
73016;BME280;61893;50.074;14.440;2022-09-30T03:37:01;97807.75;;;8.76;78.59
73016;BME280;61893;50.074;14.440;2022-09-30T03:42:34;97812.56;;;8.80;79.21
73016;BME280;61893;50.074;14.440;2022-09-30T03:45:13;97816.81;;;8.65;78.92
73016;BME280;61893;50.074;14.440;2022-09-30T03:47:51;97809.44;;;8.85;78.70
73016;BME280;61893;50.074;14.440;2022-09-30T03:50:20;97810.97;;;8.96;79.14
73016;BME280;61893;50.074;14.440;2022-09-30T03:52:52;97815.38;;;8.79;78.95
73016;BME280;61893;50.074;14.440;2022-09-30T03:55:19;97809.81;;;8.56;80.05
73016;BME280;61893;50.074;14.440;2022-09-30T03:57:47;97812.88;;;8.77;79.88
73016;BME280;61893;50.074;14.440;2022-09-30T04:00:14;97820.16;;;8.75;80.01
73016;BME280;61893;50.074;14.440;2022-09-30T04:02:40;97818.78;;;8.97;79.34
73016;BME280;61893;50.074;14.440;2022-09-30T04:05:06;97824.41;;;8.94;79.15
73016;BME280;61893;50.074;14.440;2022-09-30T04:07:33;97824.00;;;9.23;78.21
73016;BME280;61893;50.074;14.440;2022-09-30T04:10:00;97824.16;;;9.14;78.97
73016;BME280;61893;50.074;14.440;2022-09-30T04:12:26;97824.25;;;9.04;78.26
73016;BME280;61893;50.074;14.440;2022-09-30T04:14:52;97821.50;;;8.79;79.23
73016;BME280;61893;50.074;14.440;2022-09-30T04:17:17;97818.59;;;8.91;78.84
73016;BME280;61893;50.074;14.440;2022-09-30T04:19:43;97817.63;;;9.00;79.16
73016;BME280;61893;50.074;14.440;2022-09-30T04:22:09;97819.56;;;8.90;78.70
73016;BME280;61893;50.074;14.440;2022-09-30T04:24:35;97817.16;;;9.05;79.24
73016;BME280;61893;50.074;14.440;2022-09-30T04:27:02;97826.31;;;8.76;79.66
73016;BME280;61893;50.074;14.440;2022-09-30T04:29:28;97823.56;;;8.60;80.42
73016;BME280;61893;50.074;14.440;2022-09-30T04:31:54;97826.91;;;8.70;80.50
73016;BME280;61893;50.074;14.440;2022-09-30T04:34:20;97833.13;;;8.87;79.87
73016;BME280;61893;50.074;14.440;2022-09-30T04:36:48;97832.72;;;8.99;79.69
73016;BME280;61893;50.074;14.440;2022-09-30T04:39:14;97838.06;;;9.08;78.86
73016;BME280;61893;50.074;14.440;2022-09-30T04:41:40;97840.75;;;9.16;78.79
73016;BME280;61893;50.074;14.440;2022-09-30T04:44:06;97841.22;;;9.11;79.34
73016;BME280;61893;50.074;14.440;2022-09-30T04:46:33;97845.44;;;9.30;78.96
73016;BME280;61893;50.074;14.440;2022-09-30T04:49:12;97847.34;;;9.12;81.63
73016;BME280;61893;50.074;14.440;2022-09-30T04:51:40;97843.69;;;9.05;82.22
73016;BME280;61893;50.074;14.440;2022-09-30T04:54:08;97843.25;;;8.83;83.34
73016;BME280;61893;50.074;14.440;2022-09-30T04:56:33;97845.63;;;8.94;83.69
73016;BME280;61893;50.074;14.440;2022-09-30T04:59:02;97854.59;;;8.93;83.98
73016;BME280;61893;50.074;14.440;2022-09-30T05:01:28;97860.63;;;9.12;83.25
73016;BME280;61893;50.074;14.440;2022-09-30T05:03:53;97868.47;;;8.87;84.29
73016;BME280;61893;50.074;14.440;2022-09-30T05:06:20;97868.22;;;8.72;85.44
73016;BME280;61893;50.074;14.440;2022-09-30T05:09:02;97865.41;;;8.74;85.97
73016;BME280;61893;50.074;14.440;2022-09-30T05:11:28;97863.03;;;8.97;84.57
73016;BME280;61893;50.074;14.440;2022-09-30T05:13:54;97865.78;;;8.79;84.77
73016;BME280;61893;50.074;14.440;2022-09-30T05:16:22;97863.59;;;8.74;85.40
73016;BME280;61893;50.074;14.440;2022-09-30T05:18:48;97864.66;;;8.90;84.87
73016;BME280;61893;50.074;14.440;2022-09-30T05:21:17;97865.47;;;8.82;85.15
73016;BME280;61893;50.074;14.440;2022-09-30T05:23:45;97864.59;;;8.47;86.93
73016;BME280;61893;50.074;14.440;2022-09-30T05:26:12;97870.66;;;8.66;86.39
73016;BME280;61893;50.074;14.440;2022-09-30T05:28:38;97875.19;;;8.73;85.44
73016;BME280;61893;50.074;14.440;2022-09-30T05:31:04;97876.06;;;8.82;85.55
73016;BME280;61893;50.074;14.440;2022-09-30T05:33:33;97871.50;;;8.66;85.67
73016;BME280;61893;50.074;14.440;2022-09-30T05:36:02;97872.88;;;8.52;86.10
73016;BME280;61893;50.074;14.440;2022-09-30T05:38:28;97878.88;;;8.54;85.88
73016;BME280;61893;50.074;14.440;2022-09-30T05:40:54;97881.69;;;8.53;85.69
73016;BME280;61893;50.074;14.440;2022-09-30T05:43:23;97888.59;;;8.72;85.05
73016;BME280;61893;50.074;14.440;2022-09-30T05:45:56;97893.75;;;8.73;84.85
73016;BME280;61893;50.074;14.440;2022-09-30T05:48:36;97888.38;;;8.91;84.24
73016;BME280;61893;50.074;14.440;2022-09-30T05:51:02;97892.81;;;8.56;86.05
73016;BME280;61893;50.074;14.440;2022-09-30T05:53:30;97890.78;;;8.76;85.06
73016;BME280;61893;50.074;14.440;2022-09-30T05:55:56;97896.97;;;8.85;84.86
73016;BME280;61893;50.074;14.440;2022-09-30T05:58:23;97897.19;;;8.92;84.75
73016;BME280;61893;50.074;14.440;2022-09-30T06:00:49;97905.56;;;8.79;85.59
73016;BME280;61893;50.074;14.440;2022-09-30T06:03:16;97919.16;;;8.76;86.45
73016;BME280;61893;50.074;14.440;2022-09-30T06:05:42;97919.81;;;8.78;86.24
73016;BME280;61893;50.074;14.440;2022-09-30T06:08:10;97923.56;;;8.93;85.52
73016;BME280;61893;50.074;14.440;2022-09-30T06:10:39;97923.25;;;8.70;86.09
73016;BME280;61893;50.074;14.440;2022-09-30T06:13:06;97934.06;;;8.77;86.37
73016;BME280;61893;50.074;14.440;2022-09-30T06:15:36;97928.31;;;8.90;86.14
73016;BME280;61893;50.074;14.440;2022-09-30T06:18:03;97935.88;;;8.76;86.14
73016;BME280;61893;50.074;14.440;2022-09-30T06:20:29;97942.69;;;9.05;84.59
73016;BME280;61893;50.074;14.440;2022-09-30T06:23:00;97943.38;;;9.07;84.33
73016;BME280;61893;50.074;14.440;2022-09-30T06:25:27;97951.22;;;9.17;84.25
73016;BME280;61893;50.074;14.440;2022-09-30T06:27:53;97947.09;;;9.22;84.39
73016;BME280;61893;50.074;14.440;2022-09-30T06:30:19;97956.06;;;9.21;83.66
73016;BME280;61893;50.074;14.440;2022-09-30T06:32:46;97954.69;;;9.52;83.12
73016;BME280;61893;50.074;14.440;2022-09-30T06:35:12;97956.66;;;9.41;84.09
73016;BME280;61893;50.074;14.440;2022-09-30T06:37:37;97950.00;;;9.37;82.88
73016;BME280;61893;50.074;14.440;2022-09-30T06:40:04;97949.03;;;9.46;82.97
73016;BME280;61893;50.074;14.440;2022-09-30T06:42:31;97950.91;;;9.54;82.72
73016;BME280;61893;50.074;14.440;2022-09-30T06:44:57;97947.91;;;9.57;82.19
73016;BME280;61893;50.074;14.440;2022-09-30T06:47:22;97951.75;;;9.63;81.95
73016;BME280;61893;50.074;14.440;2022-09-30T06:49:48;97951.56;;;9.56;81.96
73016;BME280;61893;50.074;14.440;2022-09-30T06:52:15;97950.13;;;9.78;81.99
73016;BME280;61893;50.074;14.440;2022-09-30T06:54:41;97956.81;;;9.82;81.35
73016;BME280;61893;50.074;14.440;2022-09-30T06:57:08;97951.13;;;9.69;81.84
73016;BME280;61893;50.074;14.440;2022-09-30T06:59:54;97963.09;;;9.73;81.31
73016;BME280;61893;50.074;14.440;2022-09-30T07:02:21;97971.38;;;9.70;81.96
73016;BME280;61893;50.074;14.440;2022-09-30T07:04:48;97973.72;;;9.81;81.04
73016;BME280;61893;50.074;14.440;2022-09-30T07:07:14;97979.91;;;9.98;81.30
73016;BME280;61893;50.074;14.440;2022-09-30T07:09:41;97983.09;;;10.02;80.62
73016;BME280;61893;50.074;14.440;2022-09-30T07:12:07;97983.22;;;9.92;80.20
73016;BME280;61893;50.074;14.440;2022-09-30T07:14:33;97989.13;;;9.69;81.43
73016;BME280;61893;50.074;14.440;2022-09-30T07:17:00;97994.69;;;9.92;80.86
73016;BME280;61893;50.074;14.440;2022-09-30T07:19:29;97991.84;;;9.86;80.96
73016;BME280;61893;50.074;14.440;2022-09-30T07:21:57;97998.50;;;9.90;80.81
73016;BME280;61893;50.074;14.440;2022-09-30T07:24:43;97998.19;;;9.93;80.92
73016;BME280;61893;50.074;14.440;2022-09-30T07:27:09;97998.47;;;9.74;79.94
73016;BME280;61893;50.074;14.440;2022-09-30T07:29:52;98001.72;;;10.18;77.70
73016;BME280;61893;50.074;14.440;2022-09-30T07:32:21;97993.38;;;10.47;77.19
73016;BME280;61893;50.074;14.440;2022-09-30T07:34:47;98001.91;;;10.17;78.60
73016;BME280;61893;50.074;14.440;2022-09-30T07:37:15;97998.50;;;10.49;78.03
73016;BME280;61893;50.074;14.440;2022-09-30T07:39:43;98003.66;;;10.67;77.07
73016;BME280;61893;50.074;14.440;2022-09-30T07:42:10;98005.13;;;10.53;77.97
73016;BME280;61893;50.074;14.440;2022-09-30T07:44:38;98011.06;;;10.22;79.13
73016;BME280;61893;50.074;14.440;2022-09-30T07:47:10;98009.13;;;10.49;78.27
73016;BME280;61893;50.074;14.440;2022-09-30T07:49:37;98015.13;;;10.51;77.82
73016;BME280;61893;50.074;14.440;2022-09-30T07:52:03;98018.97;;;10.81;76.98
73016;BME280;61893;50.074;14.440;2022-09-30T07:54:31;98003.34;;;10.62;78.54
73016;BME280;61893;50.074;14.440;2022-09-30T07:56:59;98005.84;;;10.79;77.35
73016;BME280;61893;50.074;14.440;2022-09-30T07:59:27;98010.66;;;10.76;77.98
73016;BME280;61893;50.074;14.440;2022-09-30T08:01:53;98014.50;;;10.73;77.57
73016;BME280;61893;50.074;14.440;2022-09-30T08:04:20;98021.47;;;10.91;75.77
73016;BME280;61893;50.074;14.440;2022-09-30T08:06:49;98008.16;;;10.82;74.57
73016;BME280;61893;50.074;14.440;2022-09-30T08:09:18;98010.66;;;10.68;74.20
73016;BME280;61893;50.074;14.440;2022-09-30T08:11:45;98016.31;;;10.89;73.25
73016;BME280;61893;50.074;14.440;2022-09-30T08:14:14;98016.44;;;10.96;72.20
73016;BME280;61893;50.074;14.440;2022-09-30T08:16:40;98015.81;;;11.02;72.02
73016;BME280;61893;50.074;14.440;2022-09-30T08:19:14;98026.44;;;10.77;72.07
73016;BME280;61893;50.074;14.440;2022-09-30T08:21:42;98029.06;;;10.53;72.42
73016;BME280;61893;50.074;14.440;2022-09-30T08:24:11;98032.09;;;11.07;71.24
73016;BME280;61893;50.074;14.440;2022-09-30T08:26:39;98035.56;;;11.24;69.26
73016;BME280;61893;50.074;14.440;2022-09-30T08:29:06;98029.56;;;11.30;69.63
73016;BME280;61893;50.074;14.440;2022-09-30T08:31:32;98031.22;;;11.47;69.07
73016;BME280;61893;50.074;14.440;2022-09-30T08:33:57;98033.56;;;11.34;69.36
73016;BME280;61893;50.074;14.440;2022-09-30T08:36:26;98033.22;;;11.37;68.31
73016;BME280;61893;50.074;14.440;2022-09-30T08:38:53;98042.16;;;11.53;68.27
73016;BME280;61893;50.074;14.440;2022-09-30T08:44:06;98061.84;;;11.27;68.23
73016;BME280;61893;50.074;14.440;2022-09-30T08:52:03;98066.63;;;11.64;67.19
73016;BME280;61893;50.074;14.440;2022-09-30T08:54:36;98077.44;;;11.79;67.95
73016;BME280;61893;50.074;14.440;2022-09-30T08:57:04;98075.75;;;11.86;67.01
73016;BME280;61893;50.074;14.440;2022-09-30T08:59:56;98080.03;;;12.04;66.91
73016;BME280;61893;50.074;14.440;2022-09-30T09:02:30;98078.16;;;12.12;63.45
73016;BME280;61893;50.074;14.440;2022-09-30T09:05:00;98086.91;;;11.82;65.31
73016;BME280;61893;50.074;14.440;2022-09-30T09:10:44;98082.41;;;11.82;64.86
73016;BME280;61893;50.074;14.440;2022-09-30T09:13:20;98092.28;;;11.73;64.55
73016;BME280;61893;50.074;14.440;2022-09-30T09:16:13;98093.25;;;11.72;64.22
73016;BME280;61893;50.074;14.440;2022-09-30T09:19:15;98098.56;;;11.89;64.14
73016;BME280;61893;50.074;14.440;2022-09-30T09:21:52;98091.19;;;12.38;64.02
73016;BME280;61893;50.074;14.440;2022-09-30T09:24:35;98090.66;;;12.51;63.39
73016;BME280;61893;50.074;14.440;2022-09-30T09:27:24;98087.81;;;12.45;63.04
73016;BME280;61893;50.074;14.440;2022-09-30T09:30:03;98093.06;;;12.30;64.20
73016;BME280;61893;50.074;14.440;2022-09-30T09:32:31;98087.75;;;12.30;63.63
73016;BME280;61893;50.074;14.440;2022-09-30T09:35:00;98083.50;;;12.44;62.22
73016;BME280;61893;50.074;14.440;2022-09-30T09:37:39;98074.59;;;12.59;62.53
73016;BME280;61893;50.074;14.440;2022-09-30T09:40:48;98077.47;;;12.50;61.82
73016;BME280;61893;50.074;14.440;2022-09-30T09:43:42;98078.84;;;13.15;60.00
73016;BME280;61893;50.074;14.440;2022-09-30T09:46:45;98083.59;;;13.27;60.06
73016;BME280;61893;50.074;14.440;2022-09-30T09:51:43;98083.84;;;13.18;60.70
73016;BME280;61893;50.074;14.440;2022-09-30T09:54:15;98081.34;;;13.39;59.38
73016;BME280;61893;50.074;14.440;2022-09-30T09:56:43;98088.44;;;13.47;58.86
73016;BME280;61893;50.074;14.440;2022-09-30T09:59:17;98096.84;;;13.59;58.33
73016;BME280;61893;50.074;14.440;2022-09-30T10:01:51;98091.69;;;13.57;58.46
73016;BME280;61893;50.074;14.440;2022-09-30T10:04:23;98098.78;;;13.65;58.06
73016;BME280;61893;50.074;14.440;2022-09-30T10:06:52;98103.16;;;13.28;58.51
73016;BME280;61893;50.074;14.440;2022-09-30T10:09:30;98095.81;;;13.22;57.51
73016;BME280;61893;50.074;14.440;2022-09-30T10:14:59;98100.41;;;13.36;56.40
73016;BME280;61893;50.074;14.440;2022-09-30T10:17:40;98098.31;;;13.61;55.73
73016;BME280;61893;50.074;14.440;2022-09-30T10:20:34;98098.91;;;13.86;54.11
73016;BME280;61893;50.074;14.440;2022-09-30T10:23:25;98100.84;;;14.07;54.39
73016;BME280;61893;50.074;14.440;2022-09-30T10:28:33;98107.84;;;14.23;52.59
73016;BME280;61893;50.074;14.440;2022-09-30T10:31:05;98104.31;;;14.52;51.29
73016;BME280;61893;50.074;14.440;2022-09-30T10:33:42;98102.19;;;14.62;51.42
73016;BME280;61893;50.074;14.440;2022-09-30T10:36:20;98106.84;;;14.75;51.80
73016;BME280;61893;50.074;14.440;2022-09-30T10:38:52;98108.56;;;14.47;51.91
73016;BME280;61893;50.074;14.440;2022-09-30T10:41:27;98118.81;;;14.43;51.17
73016;BME280;61893;50.074;14.440;2022-09-30T10:43:56;98119.34;;;14.68;50.79
73016;BME280;61893;50.074;14.440;2022-09-30T10:46:32;98120.34;;;14.67;51.44
73016;BME280;61893;50.074;14.440;2022-09-30T10:49:07;98113.91;;;14.61;52.13
73016;BME280;61893;50.074;14.440;2022-09-30T10:51:43;98114.13;;;14.81;51.98
73016;BME280;61893;50.074;14.440;2022-09-30T10:57:11;98107.88;;;14.96;49.65
73016;BME280;61893;50.074;14.440;2022-09-30T10:59:39;98102.34;;;15.19;49.63
73016;BME280;61893;50.074;14.440;2022-09-30T11:02:21;98107.91;;;15.17;49.44
73016;BME280;61893;50.074;14.440;2022-09-30T11:05:02;98106.47;;;14.78;50.34
73016;BME280;61893;50.074;14.440;2022-09-30T11:10:44;98103.31;;;15.11;48.93
73016;BME280;61893;50.074;14.440;2022-09-30T11:13:21;98095.28;;;15.11;48.65
73016;BME280;61893;50.074;14.440;2022-09-30T11:27:02;98099.91;;;15.73;45.22
73016;BME280;61893;50.074;14.440;2022-09-30T11:49:38;98107.41;;;16.19;41.47
73016;BME280;61893;50.074;14.440;2022-09-30T11:58:01;98106.94;;;17.05;39.05
73016;BME280;61893;50.074;14.440;2022-09-30T12:00:30;98103.66;;;16.49;39.66
73016;BME280;61893;50.074;14.440;2022-09-30T12:03:11;98096.81;;;16.46;39.47
73016;BME280;61893;50.074;14.440;2022-09-30T12:05:48;98094.88;;;16.88;38.89
73016;BME280;61893;50.074;14.440;2022-09-30T12:08:38;98094.53;;;17.44;37.95
73016;BME280;61893;50.074;14.440;2022-09-30T12:11:12;98097.03;;;17.79;37.16
73016;BME280;61893;50.074;14.440;2022-09-30T12:13:51;98093.09;;;17.28;37.62
73016;BME280;61893;50.074;14.440;2022-09-30T12:16:23;98093.00;;;16.82;38.68
73016;BME280;61893;50.074;14.440;2022-09-30T12:19:18;98090.81;;;17.05;37.94
73016;BME280;61893;50.074;14.440;2022-09-30T12:24:37;98097.81;;;16.45;38.87
73016;BME280;61893;50.074;14.440;2022-09-30T12:27:04;98094.94;;;17.21;37.81
73016;BME280;61893;50.074;14.440;2022-09-30T12:29:40;98084.19;;;17.94;37.11
73016;BME280;61893;50.074;14.440;2022-09-30T12:35:30;98082.56;;;17.80;36.44
73016;BME280;61893;50.074;14.440;2022-09-30T12:49:05;98080.53;;;18.34;37.02
73016;BME280;61893;50.074;14.440;2022-09-30T12:51:35;98088.72;;;18.59;35.55
73016;BME280;61893;50.074;14.440;2022-09-30T12:56:44;98079.66;;;19.73;33.52
73016;BME280;61893;50.074;14.440;2022-09-30T12:59:12;98083.19;;;19.24;34.29
73016;BME280;61893;50.074;14.440;2022-09-30T13:01:40;98077.97;;;17.67;37.11
73016;BME280;61893;50.074;14.440;2022-09-30T13:14:39;98096.09;;;19.72;31.76
73016;BME280;61893;50.074;14.440;2022-09-30T13:19:53;98085.84;;;19.99;31.76
73016;BME280;61893;50.074;14.440;2022-09-30T13:25:11;98083.72;;;19.83;32.63
73016;BME280;61893;50.074;14.440;2022-09-30T13:27:44;98085.38;;;19.58;32.72
73016;BME280;61893;50.074;14.440;2022-09-30T13:32:45;98094.72;;;20.91;29.96
73016;BME280;61893;50.074;14.440;2022-09-30T13:35:34;98091.97;;;19.88;31.60
73016;BME280;61893;50.074;14.440;2022-09-30T13:41:21;98098.88;;;19.58;33.26
73016;BME280;61893;50.074;14.440;2022-09-30T13:46:42;98098.56;;;20.54;31.80
73016;BME280;61893;50.074;14.440;2022-09-30T13:51:59;98096.50;;;20.67;32.58
73016;BME280;61893;50.074;14.440;2022-09-30T13:54:30;98097.47;;;19.99;32.96
73016;BME280;61893;50.074;14.440;2022-09-30T13:57:03;98098.75;;;20.70;31.25
73016;BME280;61893;50.074;14.440;2022-09-30T13:59:59;98095.88;;;21.26;29.48
73016;BME280;61893;50.074;14.440;2022-09-30T14:05:19;98085.19;;;20.03;31.27
73016;BME280;61893;50.074;14.440;2022-09-30T14:21:37;98085.47;;;20.51;32.47
73016;BME280;61893;50.074;14.440;2022-09-30T14:24:21;98083.25;;;19.10;34.93
73016;BME280;61893;50.074;14.440;2022-09-30T14:32:55;98079.81;;;20.89;31.54
73016;BME280;61893;50.074;14.440;2022-09-30T14:35:25;98089.38;;;18.48;35.36
73016;BME280;61893;50.074;14.440;2022-09-30T14:38:01;98088.22;;;18.30;36.71
73016;BME280;61893;50.074;14.440;2022-09-30T14:40:30;98091.16;;;18.74;36.37
73016;BME280;61893;50.074;14.440;2022-09-30T14:43:04;98086.75;;;18.34;36.04
73016;BME280;61893;50.074;14.440;2022-09-30T14:45:34;98096.56;;;19.05;34.45
73016;BME280;61893;50.074;14.440;2022-09-30T14:48:07;98096.91;;;19.72;33.12
73016;BME280;61893;50.074;14.440;2022-09-30T14:50:39;98091.78;;;20.93;31.34
73016;BME280;61893;50.074;14.440;2022-09-30T14:53:23;98100.78;;;20.75;31.41
73016;BME280;61893;50.074;14.440;2022-09-30T14:55:49;98103.03;;;20.41;31.76
73016;BME280;61893;50.074;14.440;2022-09-30T15:00:44;98096.41;;;20.74;31.81
73016;BME280;61893;50.074;14.440;2022-09-30T15:03:12;98100.72;;;20.45;32.72
73016;BME280;61893;50.074;14.440;2022-09-30T15:05:39;98100.19;;;20.36;33.06
73016;BME280;61893;50.074;14.440;2022-09-30T15:08:15;98095.56;;;19.56;35.04
73016;BME280;61893;50.074;14.440;2022-09-30T15:10:47;98106.94;;;20.09;34.25
73016;BME280;61893;50.074;14.440;2022-09-30T15:13:15;98112.88;;;19.74;34.24
73016;BME280;61893;50.074;14.440;2022-09-30T15:15:41;98116.31;;;20.06;33.28
73016;BME280;61893;50.074;14.440;2022-09-30T15:18:31;98118.03;;;19.50;34.76
73016;BME280;61893;50.074;14.440;2022-09-30T15:21:21;98109.94;;;20.00;33.73
73016;BME280;61893;50.074;14.440;2022-09-30T15:23:48;98105.97;;;20.40;33.05
73016;BME280;61893;50.074;14.440;2022-09-30T15:26:18;98110.78;;;19.76;34.17
73016;BME280;61893;50.074;14.440;2022-09-30T15:28:45;98121.38;;;19.46;35.34
73016;BME280;61893;50.074;14.440;2022-09-30T15:31:28;98125.31;;;19.18;35.92
73016;BME280;61893;50.074;14.440;2022-09-30T15:34:04;98134.03;;;18.82;37.29
73016;BME280;61893;50.074;14.440;2022-09-30T15:36:30;98127.91;;;18.48;37.60
73016;BME280;61893;50.074;14.440;2022-09-30T15:38:56;98134.75;;;18.51;36.99
73016;BME280;61893;50.074;14.440;2022-09-30T15:41:22;98129.75;;;17.89;38.53
73016;BME280;61893;50.074;14.440;2022-09-30T15:43:52;98136.72;;;17.24;39.60
73016;BME280;61893;50.074;14.440;2022-09-30T15:46:19;98136.56;;;16.71;41.34
73016;BME280;61893;50.074;14.440;2022-09-30T15:48:47;98136.94;;;16.61;41.71
73016;BME280;61893;50.074;14.440;2022-09-30T15:51:38;98125.84;;;16.23;42.56
73016;BME280;61893;50.074;14.440;2022-09-30T15:56:39;98137.03;;;15.98;43.06
73016;BME280;61893;50.074;14.440;2022-09-30T15:59:11;98131.16;;;15.60;44.02
73016;BME280;61893;50.074;14.440;2022-09-30T16:01:48;98129.56;;;15.44;44.17
73016;BME280;61893;50.074;14.440;2022-09-30T16:14:26;98143.25;;;15.06;44.39
73016;BME280;61893;50.074;14.440;2022-09-30T16:16:55;98150.03;;;14.87;44.98
73016;BME280;61893;50.074;14.440;2022-09-30T16:19:22;98153.75;;;14.86;44.91
73016;BME280;61893;50.074;14.440;2022-09-30T16:21:52;98168.06;;;14.78;45.35
73016;BME280;61893;50.074;14.440;2022-09-30T16:26:56;98171.53;;;14.57;45.61
73016;BME280;61893;50.074;14.440;2022-09-30T16:29:23;98182.56;;;14.84;45.18
73016;BME280;61893;50.074;14.440;2022-09-30T16:31:54;98183.81;;;14.52;46.33
73016;BME280;61893;50.074;14.440;2022-09-30T16:34:23;98179.44;;;14.36;47.02